BTY019 GCRR-LEZL
Flight info
| Callsign | BTY019 |
|---|---|
| Flight time | 1h 34m |
| Altitude | 38000 |
| Route | KORAL UG5 SONSO DCT NIRAL UN871 ADUBI DCT VJF |
| Aircraft | A321/M-SDE3FGHIRWY/LB1 |
Departure
| Time | 2026-04-23 19:07 |
|---|---|
| Airport | César Manrique-Lanzarote Airport (GCRR) |
Arrival
| Time | 2026-04-23 20:41 |
|---|---|
| Airport | Seville Airport (LEZL) |
| Time | Latitude | Longitude | Altitude | Speed | Heading |
|---|---|---|---|---|---|
| 2026-04-23 18:29 | 28.95010 | -13.60750 | 49 ft | 0 kts | 296° |
| 2026-04-23 18:29 | 28.95011 | -13.60752 | 50 ft | 0 kts | 296° |
| 2026-04-23 18:37 | 28.95011 | -13.60751 | 50 ft | 0 kts | 296° |
| 2026-04-23 18:49 | 28.95010 | -13.60751 | 22 ft | 0 kts | 296° |
| 2026-04-23 18:55 | 28.95010 | -13.60750 | 50 ft | 0 kts | 296° |
| 2026-04-23 18:58 | 28.95006 | -13.60741 | 49 ft | 4 kts | 296° |
| 2026-04-23 18:59 | 28.94995 | -13.60715 | 45 ft | 2 kts | 296° |
| 2026-04-23 18:59 | 28.94986 | -13.60690 | 49 ft | 4 kts | 277° |
| 2026-04-23 18:59 | 28.94989 | -13.60662 | 50 ft | 4 kts | 242° |
| 2026-04-23 18:59 | 28.95005 | -13.60640 | 47 ft | 4 kts | 209° |
| 2026-04-23 19:00 | 28.95010 | -13.60637 | 50 ft | 2 kts | 206° |
| 2026-04-23 19:01 | 28.95003 | -13.60641 | 48 ft | 4 kts | 205° |
| 2026-04-23 19:02 | 28.94960 | -13.60665 | 50 ft | 8 kts | 206° |
| 2026-04-23 19:02 | 28.94909 | -13.60659 | 50 ft | 8 kts | 140° |
| 2026-04-23 19:02 | 28.94879 | -13.60600 | 50 ft | 9 kts | 115° |
| 2026-04-23 19:02 | 28.94813 | -13.60578 | 48 ft | 15 kts | 203° |
| 2026-04-23 19:03 | 28.94712 | -13.60633 | 50 ft | 17 kts | 207° |
| 2026-04-23 19:03 | 28.94598 | -13.60699 | 43 ft | 21 kts | 206° |
| 2026-04-23 19:03 | 28.94450 | -13.60784 | 33 ft | 24 kts | 207° |
| 2026-04-23 19:03 | 28.94293 | -13.60875 | 29 ft | 26 kts | 207° |
| 2026-04-23 19:04 | 28.94130 | -13.60970 | 27 ft | 27 kts | 207° |
| 2026-04-23 19:04 | 28.93959 | -13.61070 | 26 ft | 28 kts | 207° |
| 2026-04-23 19:04 | 28.93789 | -13.61169 | 24 ft | 26 kts | 207° |
| 2026-04-23 19:04 | 28.93666 | -13.61215 | 24 ft | 7 kts | 154° |
| 2026-04-23 19:05 | 28.93660 | -13.61211 | 24 ft | 2 kts | 151° |
| 2026-04-23 19:05 | 28.93641 | -13.61182 | 24 ft | 7 kts | 119° |
| 2026-04-23 19:05 | 28.93626 | -13.61149 | 24 ft | 4 kts | 117° |
| 2026-04-23 19:05 | 28.93615 | -13.61121 | 24 ft | 4 kts | 111° |
| 2026-04-23 19:06 | 28.93619 | -13.61061 | 26 ft | 13 kts | 51° |
| 2026-04-23 19:06 | 28.93644 | -13.61044 | 25 ft | 0 kts | 23° |
| 2026-04-23 19:06 | 28.93649 | -13.61042 | 25 ft | 9 kts | 24° |
| 2026-04-23 19:06 | 28.93936 | -13.60879 | 29 ft | 81 kts | 26° |
| 2026-04-23 19:07 | 28.94622 | -13.60487 | 38 ft | 136 kts | 26° |
| 2026-04-23 19:07 | 28.95525 | -13.59942 | 487 ft | 143 kts | 27° |
| 2026-04-23 19:07 | 28.96336 | -13.59315 | 1215 ft | 140 kts | 30° |
| 2026-04-23 19:07 | 28.97119 | -13.58652 | 1754 ft | 142 kts | 33° |
| 2026-04-23 19:08 | 28.97963 | -13.57936 | 2054 ft | 162 kts | 32° |
| 2026-04-23 19:08 | 28.98926 | -13.57126 | 2259 ft | 182 kts | 31° |
| 2026-04-23 19:08 | 29.00013 | -13.56218 | 2400 ft | 205 kts | 32° |
| 2026-04-23 19:08 | 29.01162 | -13.55134 | 2539 ft | 232 kts | 41° |
| 2026-04-23 19:09 | 29.02283 | -13.53682 | 2989 ft | 252 kts | 47° |
| 2026-04-23 19:09 | 29.03388 | -13.52080 | 3688 ft | 260 kts | 47° |
| 2026-04-23 19:09 | 29.04498 | -13.50433 | 4464 ft | 264 kts | 48° |
| 2026-04-23 19:09 | 29.05642 | -13.48752 | 5156 ft | 272 kts | 49° |
| 2026-04-23 19:10 | 29.06825 | -13.47041 | 5814 ft | 277 kts | 47° |
| 2026-04-23 19:10 | 29.08037 | -13.45316 | 6588 ft | 279 kts | 48° |
| 2026-04-23 19:10 | 29.09279 | -13.43596 | 7251 ft | 283 kts | 43° |
| 2026-04-23 19:10 | 29.10875 | -13.42318 | 7856 ft | 282 kts | 21° |
| 2026-04-23 19:11 | 29.12642 | -13.41384 | 8520 ft | 286 kts | 21° |
| 2026-04-23 19:11 | 29.14464 | -13.40426 | 9180 ft | 291 kts | 21° |
| 2026-04-23 19:11 | 29.16317 | -13.39448 | 9872 ft | 295 kts | 21° |
| 2026-04-23 19:11 | 29.18205 | -13.38447 | 10321 ft | 308 kts | 21° |
| 2026-04-23 19:12 | 29.19523 | -13.37750 | 10408 ft | 323 kts | 21° |
| 2026-04-23 19:12 | 29.22360 | -13.36247 | 10716 ft | 345 kts | 21° |
| 2026-04-23 19:12 | 29.24552 | -13.35071 | 11230 ft | 351 kts | 22° |
| 2026-04-23 19:12 | 29.26651 | -13.33571 | 11777 ft | 361 kts | 35° |
| 2026-04-23 19:13 | 29.28474 | -13.31561 | 12039 ft | 367 kts | 48° |
| 2026-04-23 19:13 | 29.29954 | -13.29214 | 12090 ft | 369 kts | 53° |
| 2026-04-23 19:13 | 29.31413 | -13.26801 | 12096 ft | 369 kts | 53° |
| 2026-04-23 19:13 | 29.32876 | -13.24386 | 12085 ft | 369 kts | 53° |
| 2026-04-23 19:14 | 29.34340 | -13.21975 | 12090 ft | 368 kts | 53° |
| 2026-04-23 19:14 | 29.35806 | -13.19567 | 12085 ft | 368 kts | 53° |
| 2026-04-23 19:14 | 29.37271 | -13.17165 | 12084 ft | 368 kts | 53° |
| 2026-04-23 19:14 | 29.38739 | -13.14754 | 12086 ft | 368 kts | 53° |
| 2026-04-23 19:15 | 29.40203 | -13.12346 | 12087 ft | 369 kts | 53° |
| 2026-04-23 19:15 | 29.41651 | -13.09964 | 12085 ft | 369 kts | 53° |
| 2026-04-23 19:15 | 29.43118 | -13.07550 | 12097 ft | 369 kts | 53° |
| 2026-04-23 19:15 | 29.44588 | -13.05135 | 12088 ft | 369 kts | 53° |
| 2026-04-23 19:16 | 29.46056 | -13.02722 | 12084 ft | 369 kts | 53° |
| 2026-04-23 19:16 | 29.47527 | -13.00303 | 12117 ft | 371 kts | 53° |
| 2026-04-23 19:16 | 29.49010 | -12.97865 | 12725 ft | 373 kts | 53° |
| 2026-04-23 19:17 | 29.51987 | -12.92952 | 13930 ft | 381 kts | 53° |
| 2026-04-23 19:17 | 29.53507 | -12.90436 | 14451 ft | 385 kts | 53° |
| 2026-04-23 19:17 | 29.55043 | -12.87893 | 14976 ft | 389 kts | 53° |
| 2026-04-23 19:17 | 29.56594 | -12.85328 | 15500 ft | 393 kts | 53° |
| 2026-04-23 19:18 | 29.58161 | -12.82738 | 16021 ft | 397 kts | 53° |
| 2026-04-23 19:18 | 29.59743 | -12.80124 | 16535 ft | 400 kts | 53° |
| 2026-04-23 19:18 | 29.61337 | -12.77483 | 17046 ft | 404 kts | 53° |
| 2026-04-23 19:18 | 29.62944 | -12.74812 | 17494 ft | 409 kts | 53° |
| 2026-04-23 19:19 | 29.66209 | -12.69379 | 18434 ft | 417 kts | 53° |
| 2026-04-23 19:19 | 29.67842 | -12.66669 | 18855 ft | 420 kts | 53° |
| 2026-04-23 19:20 | 29.71188 | -12.61110 | 19687 ft | 426 kts | 52° |
| 2026-04-23 19:20 | 29.72876 | -12.58299 | 20090 ft | 428 kts | 52° |
| 2026-04-23 19:20 | 29.74571 | -12.55470 | 20481 ft | 431 kts | 52° |
| 2026-04-23 19:20 | 29.76270 | -12.52614 | 20863 ft | 434 kts | 52° |
| 2026-04-23 19:21 | 29.77971 | -12.49736 | 21235 ft | 436 kts | 52° |
| 2026-04-23 19:21 | 29.81372 | -12.43953 | 22001 ft | 441 kts | 52° |
| 2026-04-23 19:21 | 29.83094 | -12.41022 | 22368 ft | 444 kts | 51° |
| 2026-04-23 19:22 | 29.84831 | -12.38070 | 22718 ft | 446 kts | 51° |
| 2026-04-23 19:22 | 29.86583 | -12.35099 | 23074 ft | 449 kts | 51° |
| 2026-04-23 19:22 | 29.90112 | -12.29115 | 23769 ft | 454 kts | 51° |
| 2026-04-23 19:23 | 29.91892 | -12.26101 | 24064 ft | 456 kts | 51° |
| 2026-04-23 19:23 | 29.93681 | -12.23065 | 24364 ft | 459 kts | 51° |
| 2026-04-23 19:23 | 29.95452 | -12.20052 | 24658 ft | 461 kts | 51° |
| 2026-04-23 19:24 | 29.99063 | -12.13888 | 25246 ft | 466 kts | 51° |
| 2026-04-23 19:24 | 30.00928 | -12.10822 | 25530 ft | 466 kts | 45° |
| 2026-04-23 19:24 | 30.05422 | -12.05512 | 26103 ft | 464 kts | 37° |
| 2026-04-23 19:25 | 30.10087 | -12.00313 | 26680 ft | 469 kts | 37° |
| 2026-04-23 19:25 | 30.14759 | -11.95071 | 27236 ft | 474 kts | 37° |
| 2026-04-23 19:26 | 30.19510 | -11.89728 | 27786 ft | 478 kts | 37° |
| 2026-04-23 19:26 | 30.21903 | -11.87038 | 28056 ft | 481 kts | 37° |
| 2026-04-23 19:27 | 30.26727 | -11.81630 | 28594 ft | 485 kts | 37° |
| 2026-04-23 19:27 | 30.34008 | -11.73449 | 29351 ft | 492 kts | 37° |
| 2026-04-23 19:28 | 30.38924 | -11.67889 | 29856 ft | 496 kts | 37° |
| 2026-04-23 19:28 | 30.43885 | -11.62277 | 30315 ft | 500 kts | 37° |
| 2026-04-23 19:29 | 30.46380 | -11.59456 | 30489 ft | 503 kts | 37° |
| 2026-04-23 19:29 | 30.51366 | -11.53810 | 30869 ft | 506 kts | 37° |
| 2026-04-23 19:30 | 30.56409 | -11.48090 | 31245 ft | 508 kts | 37° |
| 2026-04-23 19:30 | 30.58932 | -11.45226 | 31502 ft | 507 kts | 37° |
| 2026-04-23 19:30 | 30.63962 | -11.39513 | 32051 ft | 505 kts | 37° |
| 2026-04-23 19:31 | 30.66471 | -11.36660 | 32313 ft | 504 kts | 37° |
| 2026-04-23 19:31 | 30.68974 | -11.33812 | 32561 ft | 504 kts | 37° |
| 2026-04-23 19:31 | 30.71441 | -11.31001 | 32853 ft | 503 kts | 37° |
| 2026-04-23 19:31 | 30.73940 | -11.28152 | 33072 ft | 503 kts | 37° |
| 2026-04-23 19:32 | 30.76435 | -11.25302 | 33344 ft | 503 kts | 37° |
| 2026-04-23 19:32 | 30.78935 | -11.22443 | 33540 ft | 504 kts | 37° |
| 2026-04-23 19:32 | 30.81436 | -11.19585 | 33772 ft | 504 kts | 37° |
| 2026-04-23 19:32 | 30.83934 | -11.16726 | 34015 ft | 504 kts | 37° |
| 2026-04-23 19:33 | 30.86429 | -11.13866 | 34234 ft | 503 kts | 37° |
| 2026-04-23 19:33 | 30.88924 | -11.11006 | 34438 ft | 503 kts | 37° |
| 2026-04-23 19:33 | 30.93874 | -11.05331 | 34838 ft | 502 kts | 37° |
| 2026-04-23 19:34 | 30.96362 | -11.02477 | 35032 ft | 502 kts | 37° |
| 2026-04-23 19:34 | 30.98848 | -10.99623 | 35233 ft | 502 kts | 37° |
| 2026-04-23 19:34 | 31.03815 | -10.93914 | 35616 ft | 501 kts | 38° |
| 2026-04-23 19:35 | 31.06296 | -10.91059 | 35846 ft | 501 kts | 38° |
| 2026-04-23 19:35 | 31.08775 | -10.88203 | 36001 ft | 502 kts | 38° |
| 2026-04-23 19:35 | 31.11253 | -10.85341 | 36163 ft | 502 kts | 38° |
| 2026-04-23 19:35 | 31.13701 | -10.82513 | 36334 ft | 501 kts | 38° |
| 2026-04-23 19:36 | 31.16176 | -10.79651 | 36505 ft | 501 kts | 38° |
| 2026-04-23 19:36 | 31.18652 | -10.76787 | 36679 ft | 501 kts | 38° |
| 2026-04-23 19:36 | 31.21127 | -10.73928 | 36831 ft | 500 kts | 38° |
| 2026-04-23 19:36 | 31.23600 | -10.71068 | 36998 ft | 500 kts | 38° |
| 2026-04-23 19:37 | 31.26068 | -10.68207 | 37151 ft | 500 kts | 38° |
| 2026-04-23 19:37 | 31.28534 | -10.65341 | 37299 ft | 500 kts | 38° |
| 2026-04-23 19:37 | 31.30997 | -10.62477 | 37445 ft | 499 kts | 38° |
| 2026-04-23 19:37 | 31.33459 | -10.59612 | 37588 ft | 499 kts | 38° |
| 2026-04-23 19:38 | 31.35887 | -10.56785 | 37689 ft | 499 kts | 39° |
| 2026-04-23 19:38 | 31.38344 | -10.53924 | 37895 ft | 498 kts | 39° |
| 2026-04-23 19:38 | 31.40797 | -10.51065 | 38050 ft | 497 kts | 39° |
| 2026-04-23 19:39 | 31.45704 | -10.45352 | 38078 ft | 497 kts | 39° |
| 2026-04-23 19:39 | 31.50602 | -10.39639 | 38079 ft | 497 kts | 39° |
| 2026-04-23 19:40 | 31.55462 | -10.33950 | 38081 ft | 497 kts | 39° |
| 2026-04-23 19:40 | 31.60346 | -10.28221 | 38081 ft | 497 kts | 39° |
| 2026-04-23 19:41 | 31.65233 | -10.22481 | 38083 ft | 497 kts | 39° |
| 2026-04-23 19:41 | 31.70126 | -10.16742 | 38107 ft | 498 kts | 40° |
| 2026-04-23 19:42 | 31.75028 | -10.10983 | 38106 ft | 498 kts | 40° |
| 2026-04-23 19:42 | 31.79887 | -10.05249 | 38104 ft | 498 kts | 40° |
| 2026-04-23 19:43 | 31.84778 | -9.99468 | 38101 ft | 499 kts | 40° |
| 2026-04-23 19:43 | 31.89667 | -9.93685 | 38100 ft | 499 kts | 40° |
| 2026-04-23 19:44 | 31.94556 | -9.87888 | 38103 ft | 498 kts | 40° |
| 2026-04-23 19:44 | 31.99407 | -9.82138 | 38070 ft | 497 kts | 41° |
| 2026-04-23 19:45 | 32.04268 | -9.76370 | 38074 ft | 496 kts | 41° |
| 2026-04-23 19:45 | 32.09130 | -9.70585 | 38081 ft | 496 kts | 41° |
| 2026-04-23 19:46 | 32.13987 | -9.64797 | 38080 ft | 496 kts | 41° |
| 2026-04-23 19:46 | 32.18812 | -9.59039 | 38082 ft | 497 kts | 41° |
| 2026-04-23 19:47 | 32.22845 | -9.54214 | 38085 ft | 497 kts | 41° |
| 2026-04-23 19:47 | 32.28516 | -9.47418 | 38091 ft | 497 kts | 41° |
| 2026-04-23 19:48 | 32.33336 | -9.41645 | 38072 ft | 497 kts | 42° |
| 2026-04-23 19:48 | 32.38188 | -9.35808 | 38077 ft | 498 kts | 42° |
| 2026-04-23 19:49 | 32.43042 | -9.29962 | 38082 ft | 498 kts | 42° |
| 2026-04-23 19:49 | 32.47900 | -9.24104 | 38087 ft | 499 kts | 42° |
| 2026-04-23 19:50 | 32.52757 | -9.18236 | 38093 ft | 499 kts | 42° |
| 2026-04-23 19:50 | 32.57584 | -9.12394 | 38074 ft | 499 kts | 43° |
| 2026-04-23 19:51 | 32.62425 | -9.06528 | 38051 ft | 497 kts | 43° |
| 2026-04-23 19:51 | 32.67259 | -9.00668 | 38081 ft | 497 kts | 43° |
| 2026-04-23 19:52 | 32.72094 | -8.94787 | 38090 ft | 498 kts | 43° |
| 2026-04-23 19:52 | 32.76899 | -8.88938 | 38095 ft | 498 kts | 43° |
| 2026-04-23 19:53 | 32.81732 | -8.83055 | 38093 ft | 498 kts | 43° |
| 2026-04-23 19:53 | 32.86561 | -8.77157 | 38109 ft | 497 kts | 44° |
| 2026-04-23 19:54 | 32.91382 | -8.71257 | 38086 ft | 497 kts | 44° |
| 2026-04-23 19:54 | 32.96158 | -8.65400 | 38091 ft | 496 kts | 44° |
| 2026-04-23 19:55 | 33.00964 | -8.59496 | 38091 ft | 496 kts | 44° |
| 2026-04-23 19:55 | 33.05762 | -8.53590 | 38092 ft | 496 kts | 44° |
| 2026-04-23 19:56 | 33.10564 | -8.47664 | 38089 ft | 496 kts | 44° |
| 2026-04-23 19:56 | 33.15330 | -8.41787 | 38087 ft | 496 kts | 44° |
| 2026-04-23 19:57 | 33.20320 | -8.36143 | 38094 ft | 492 kts | 33° |
| 2026-04-23 19:57 | 33.26052 | -8.31730 | 38070 ft | 490 kts | 28° |
| 2026-04-23 19:58 | 33.31836 | -8.27381 | 38074 ft | 492 kts | 29° |
| 2026-04-23 19:58 | 33.37584 | -8.23040 | 38081 ft | 492 kts | 29° |
| 2026-04-23 19:59 | 33.43379 | -8.18652 | 38107 ft | 493 kts | 29° |
| 2026-04-23 19:59 | 33.49180 | -8.14263 | 38098 ft | 493 kts | 29° |
| 2026-04-23 20:00 | 33.54974 | -8.09867 | 38097 ft | 493 kts | 29° |
| 2026-04-23 20:00 | 33.60767 | -8.05473 | 38096 ft | 493 kts | 29° |
| 2026-04-23 20:01 | 33.66527 | -8.01104 | 38093 ft | 493 kts | 29° |
| 2026-04-23 20:01 | 33.72319 | -7.96697 | 38092 ft | 493 kts | 30° |
| 2026-04-23 20:02 | 33.78108 | -7.92284 | 38103 ft | 492 kts | 30° |
| 2026-04-23 20:02 | 33.83888 | -7.87863 | 38095 ft | 492 kts | 30° |
| 2026-04-23 20:03 | 33.89623 | -7.83473 | 38090 ft | 492 kts | 30° |
| 2026-04-23 20:03 | 33.95399 | -7.79045 | 38088 ft | 492 kts | 30° |
| 2026-04-23 20:04 | 34.01175 | -7.74605 | 38120 ft | 493 kts | 31° |
| 2026-04-23 20:04 | 34.06949 | -7.70163 | 38107 ft | 492 kts | 31° |
| 2026-04-23 20:05 | 34.12684 | -7.65755 | 38114 ft | 492 kts | 30° |
| 2026-04-23 20:05 | 34.18454 | -7.61318 | 38107 ft | 492 kts | 31° |
| 2026-04-23 20:06 | 34.24210 | -7.56858 | 38083 ft | 491 kts | 31° |
| 2026-04-23 20:06 | 34.29952 | -7.52399 | 38107 ft | 490 kts | 31° |
| 2026-04-23 20:07 | 34.35651 | -7.47979 | 38115 ft | 489 kts | 31° |
| 2026-04-23 20:07 | 34.41378 | -7.43536 | 38106 ft | 489 kts | 31° |
| 2026-04-23 20:08 | 34.47107 | -7.39095 | 38111 ft | 489 kts | 31° |
| 2026-04-23 20:08 | 34.52829 | -7.34648 | 38126 ft | 489 kts | 32° |
| 2026-04-23 20:09 | 34.58501 | -7.30210 | 38124 ft | 489 kts | 32° |
| 2026-04-23 20:09 | 34.64212 | -7.25734 | 38112 ft | 489 kts | 32° |
| 2026-04-23 20:10 | 34.68965 | -7.22015 | 38110 ft | 489 kts | 32° |
| 2026-04-23 20:10 | 34.75643 | -7.16794 | 38104 ft | 488 kts | 32° |
| 2026-04-23 20:11 | 34.81348 | -7.12317 | 38122 ft | 488 kts | 32° |
| 2026-04-23 20:11 | 34.87006 | -7.07858 | 38119 ft | 487 kts | 32° |
| 2026-04-23 20:12 | 34.92695 | -7.03366 | 38110 ft | 487 kts | 32° |
| 2026-04-23 20:12 | 34.98374 | -6.98882 | 38104 ft | 487 kts | 32° |
| 2026-04-23 20:13 | 35.04020 | -6.94425 | 38104 ft | 487 kts | 32° |
| 2026-04-23 20:13 | 35.09696 | -6.89924 | 38115 ft | 486 kts | 32° |
| 2026-04-23 20:14 | 35.15365 | -6.85420 | 38103 ft | 486 kts | 32° |
| 2026-04-23 20:14 | 35.21024 | -6.80922 | 38095 ft | 484 kts | 32° |
| 2026-04-23 20:15 | 35.26667 | -6.76438 | 38095 ft | 483 kts | 32° |
| 2026-04-23 20:15 | 35.32262 | -6.71973 | 38098 ft | 483 kts | 33° |
| 2026-04-23 20:16 | 35.37892 | -6.67512 | 38097 ft | 482 kts | 32° |
| 2026-04-23 20:16 | 35.43574 | -6.63151 | 38092 ft | 481 kts | 31° |
| 2026-04-23 20:17 | 35.49257 | -6.58829 | 38092 ft | 481 kts | 31° |
| 2026-04-23 20:17 | 35.54889 | -6.54497 | 38088 ft | 481 kts | 32° |
| 2026-04-23 20:18 | 35.60540 | -6.50115 | 38100 ft | 481 kts | 32° |
| 2026-04-23 20:18 | 35.66194 | -6.45721 | 38061 ft | 480 kts | 32° |
| 2026-04-23 20:18 | 35.69016 | -6.43529 | 37866 ft | 479 kts | 32° |
| 2026-04-23 20:19 | 35.71836 | -6.41340 | 37585 ft | 479 kts | 32° |
| 2026-04-23 20:19 | 35.74651 | -6.39157 | 37310 ft | 479 kts | 32° |
| 2026-04-23 20:19 | 35.77469 | -6.36967 | 37050 ft | 479 kts | 32° |
| 2026-04-23 20:19 | 35.80248 | -6.34801 | 36796 ft | 479 kts | 32° |
| 2026-04-23 20:20 | 35.83064 | -6.32602 | 36538 ft | 480 kts | 32° |
| 2026-04-23 20:20 | 35.85863 | -6.30359 | 36143 ft | 480 kts | 34° |
| 2026-04-23 20:20 | 35.88637 | -6.28040 | 35346 ft | 483 kts | 35° |
| 2026-04-23 20:20 | 35.91393 | -6.25660 | 34563 ft | 485 kts | 36° |
| 2026-04-23 20:21 | 35.94150 | -6.23238 | 33646 ft | 489 kts | 36° |
| 2026-04-23 20:21 | 35.96910 | -6.20811 | 33103 ft | 483 kts | 36° |
| 2026-04-23 20:21 | 35.99640 | -6.18433 | 32542 ft | 478 kts | 36° |
| 2026-04-23 20:21 | 36.02354 | -6.16091 | 31976 ft | 474 kts | 36° |
| 2026-04-23 20:22 | 36.05022 | -6.13810 | 31426 ft | 470 kts | 36° |
| 2026-04-23 20:22 | 36.07706 | -6.11520 | 30871 ft | 467 kts | 36° |
| 2026-04-23 20:22 | 36.10362 | -6.09251 | 30334 ft | 463 kts | 36° |
| 2026-04-23 20:22 | 36.12996 | -6.06993 | 29736 ft | 458 kts | 36° |
| 2026-04-23 20:23 | 36.15589 | -6.04761 | 29221 ft | 451 kts | 36° |
| 2026-04-23 20:23 | 36.18148 | -6.02554 | 28696 ft | 445 kts | 36° |
| 2026-04-23 20:23 | 36.20669 | -6.00375 | 28183 ft | 440 kts | 36° |
| 2026-04-23 20:23 | 36.23187 | -5.98356 | 27692 ft | 434 kts | 29° |
| 2026-04-23 20:24 | 36.25918 | -5.96823 | 27198 ft | 428 kts | 19° |
| 2026-04-23 20:24 | 36.28741 | -5.95742 | 26725 ft | 422 kts | 16° |
| 2026-04-23 20:24 | 36.31531 | -5.94703 | 26258 ft | 415 kts | 16° |
| 2026-04-23 20:24 | 36.34274 | -5.93669 | 25816 ft | 409 kts | 17° |
| 2026-04-23 20:25 | 36.36971 | -5.92641 | 25383 ft | 404 kts | 17° |
| 2026-04-23 20:25 | 36.39643 | -5.91623 | 24957 ft | 399 kts | 17° |
| 2026-04-23 20:25 | 36.42282 | -5.90620 | 24535 ft | 394 kts | 17° |
| 2026-04-23 20:25 | 36.44892 | -5.89631 | 24112 ft | 390 kts | 16° |
| 2026-04-23 20:26 | 36.47477 | -5.88654 | 23688 ft | 387 kts | 16° |
| 2026-04-23 20:26 | 36.50009 | -5.87698 | 23227 ft | 384 kts | 16° |
| 2026-04-23 20:26 | 36.52555 | -5.86738 | 22810 ft | 382 kts | 16° |
| 2026-04-23 20:26 | 36.55089 | -5.85782 | 22387 ft | 379 kts | 16° |
| 2026-04-23 20:27 | 36.57603 | -5.84828 | 21959 ft | 377 kts | 17° |
| 2026-04-23 20:27 | 36.60103 | -5.83877 | 21537 ft | 374 kts | 17° |
| 2026-04-23 20:27 | 36.62586 | -5.82930 | 21112 ft | 372 kts | 17° |
| 2026-04-23 20:27 | 36.65021 | -5.82000 | 20691 ft | 369 kts | 17° |
| 2026-04-23 20:28 | 36.67468 | -5.81064 | 20273 ft | 367 kts | 17° |
| 2026-04-23 20:28 | 36.69901 | -5.80138 | 19850 ft | 365 kts | 17° |
| 2026-04-23 20:28 | 36.72323 | -5.79221 | 19417 ft | 363 kts | 17° |
| 2026-04-23 20:28 | 36.74732 | -5.78309 | 19001 ft | 361 kts | 17° |
| 2026-04-23 20:29 | 36.77127 | -5.77399 | 18573 ft | 359 kts | 17° |
| 2026-04-23 20:29 | 36.79506 | -5.76489 | 18147 ft | 357 kts | 17° |
| 2026-04-23 20:29 | 36.81868 | -5.75583 | 17726 ft | 354 kts | 17° |
| 2026-04-23 20:29 | 36.84214 | -5.74685 | 17317 ft | 351 kts | 17° |
| 2026-04-23 20:30 | 36.86514 | -5.73806 | 16926 ft | 349 kts | 17° |
| 2026-04-23 20:30 | 36.91122 | -5.72042 | 16138 ft | 344 kts | 17° |
| 2026-04-23 20:30 | 36.93407 | -5.71167 | 15735 ft | 342 kts | 17° |
| 2026-04-23 20:31 | 36.95673 | -5.70297 | 15331 ft | 340 kts | 18° |
| 2026-04-23 20:31 | 36.97926 | -5.69428 | 14949 ft | 337 kts | 18° |
| 2026-04-23 20:31 | 37.00161 | -5.68564 | 14569 ft | 335 kts | 18° |
| 2026-04-23 20:31 | 37.02355 | -5.67720 | 14184 ft | 333 kts | 18° |
| 2026-04-23 20:32 | 37.04565 | -5.66873 | 13788 ft | 330 kts | 18° |
| 2026-04-23 20:32 | 37.06757 | -5.66032 | 13387 ft | 329 kts | 18° |
| 2026-04-23 20:32 | 37.08937 | -5.65193 | 12990 ft | 327 kts | 18° |
| 2026-04-23 20:32 | 37.11098 | -5.64360 | 12594 ft | 324 kts | 18° |
| 2026-04-23 20:33 | 37.13245 | -5.63531 | 12213 ft | 322 kts | 18° |
| 2026-04-23 20:33 | 37.15371 | -5.62712 | 11831 ft | 315 kts | 18° |
| 2026-04-23 20:33 | 37.17442 | -5.62007 | 11456 ft | 304 kts | 11° |
| 2026-04-23 20:33 | 37.19530 | -5.61751 | 11076 ft | 301 kts | 3° |
| 2026-04-23 20:34 | 37.21617 | -5.61623 | 10487 ft | 300 kts | 3° |
| 2026-04-23 20:34 | 37.23657 | -5.61487 | 9777 ft | 295 kts | 3° |
| 2026-04-23 20:34 | 37.25694 | -5.61345 | 8999 ft | 291 kts | 4° |
| 2026-04-23 20:34 | 37.27702 | -5.61200 | 8254 ft | 288 kts | 4° |
| 2026-04-23 20:35 | 37.29691 | -5.61059 | 7510 ft | 284 kts | 5° |
| 2026-04-23 20:35 | 37.31649 | -5.60923 | 6787 ft | 280 kts | 5° |
| 2026-04-23 20:35 | 37.33586 | -5.60791 | 6050 ft | 277 kts | 5° |
| 2026-04-23 20:35 | 37.35495 | -5.60660 | 5358 ft | 273 kts | 5° |
| 2026-04-23 20:36 | 37.37353 | -5.60548 | 5222 ft | 274 kts | 1° |
| 2026-04-23 20:36 | 37.39221 | -5.61043 | 5096 ft | 274 kts | 335° |
| 2026-04-23 20:36 | 37.40696 | -5.62394 | 4961 ft | 254 kts | 311° |
| 2026-04-23 20:36 | 37.41571 | -5.64198 | 4712 ft | 237 kts | 290° |
| 2026-04-23 20:37 | 37.41851 | -5.66184 | 4176 ft | 226 kts | 269° |
| 2026-04-23 20:37 | 37.41848 | -5.68128 | 3533 ft | 219 kts | 268° |
| 2026-04-23 20:37 | 37.41839 | -5.70009 | 2940 ft | 211 kts | 268° |
| 2026-04-23 20:37 | 37.41836 | -5.71786 | 2565 ft | 196 kts | 266° |
| 2026-04-23 20:38 | 37.41834 | -5.73426 | 2305 ft | 181 kts | 265° |
| 2026-04-23 20:38 | 37.41832 | -5.74930 | 2053 ft | 163 kts | 265° |
| 2026-04-23 20:38 | 37.41830 | -5.76295 | 1846 ft | 148 kts | 267° |
| 2026-04-23 20:38 | 37.41827 | -5.77543 | 1653 ft | 139 kts | 267° |
| 2026-04-23 20:39 | 37.41823 | -5.78741 | 1457 ft | 135 kts | 266° |
| 2026-04-23 20:39 | 37.41820 | -5.79919 | 1292 ft | 135 kts | 266° |
| 2026-04-23 20:39 | 37.41817 | -5.81092 | 1111 ft | 135 kts | 265° |
| 2026-04-23 20:39 | 37.41814 | -5.82276 | 932 ft | 135 kts | 266° |
| 2026-04-23 20:40 | 37.41810 | -5.83463 | 789 ft | 134 kts | 265° |
| 2026-04-23 20:40 | 37.41810 | -5.84643 | 629 ft | 135 kts | 266° |
| 2026-04-23 20:40 | 37.41802 | -5.85822 | 461 ft | 136 kts | 266° |
| 2026-04-23 20:40 | 37.41801 | -5.87001 | 260 ft | 135 kts | 265° |
| 2026-04-23 20:41 | 37.41800 | -5.88178 | 119 ft | 134 kts | 266° |
| 2026-04-23 20:41 | 37.41789 | -5.89237 | 100 ft | 93 kts | 270° |
| 2026-04-23 20:41 | 37.41796 | -5.89671 | 99 ft | 7 kts | 277° |
| 2026-04-23 20:41 | 37.41838 | -5.89791 | 98 ft | 30 kts | 315° |
| 2026-04-23 20:42 | 37.41940 | -5.89853 | 96 ft | 1 kts | 336° |
| 2026-04-23 20:42 | 37.41953 | -5.89860 | 98 ft | 2 kts | 336° |
| 2026-04-23 20:42 | 37.41967 | -5.89868 | 97 ft | 2 kts | 336° |
| 2026-04-23 20:42 | 37.41982 | -5.89876 | 97 ft | 3 kts | 336° |
| 2026-04-23 20:43 | 37.42004 | -5.89888 | 96 ft | 5 kts | 338° |
| 2026-04-23 20:43 | 37.42073 | -5.89922 | 96 ft | 14 kts | 339° |
| 2026-04-23 20:43 | 37.42137 | -5.89929 | 94 ft | 8 kts | 352° |
| 2026-04-23 20:43 | 37.42176 | -5.89971 | 94 ft | 7 kts | 315° |
| 2026-04-23 20:44 | 37.42184 | -5.89981 | 94 ft | 0 kts | 315° |
| 2026-04-23 20:47 | 37.42183 | -5.89981 | 94 ft | 0 kts | 315° |
| 2026-04-23 20:50 | 37.42183 | -5.89980 | 94 ft | 0 kts | 315° |